Time;durP1;ratioP1;P1;durP2;ratioP2;P2;SDS_P1;SDS_P2;PMS_P1;PMS_P2;Temp;Humidity;BMP_temperature;BMP_pressure;BME280_temperature;BME280_humidity;BME280_pressure;Samples;Min_cycle;Max_cycle;Signal;HPM_P1;HPM_P2
2022/12/18 00:01:48;;;;;;;23.00;20.58;;;;;;;-0.38;100.00;96557.38;5069413;28;20060;-60
2022/12/18 00:04:21;;;;;;;22.65;20.30;;;;;;;-0.39;100.00;96561.69;5067878;28;20055;-60
2022/12/18 00:06:46;;;;;;;23.20;20.98;;;;;;;-0.39;100.00;96571.22;5069229;28;20099;-61
2022/12/18 00:09:12;;;;;;;22.60;20.08;;;;;;;-0.36;100.00;96578.88;5067550;28;20112;-60
2022/12/18 00:11:37;;;;;;;23.15;20.60;;;;;;;-0.37;100.00;96575.44;5069700;28;20113;-61
2022/12/18 00:14:02;;;;;;;20.20;18.20;;;;;;;-0.37;100.00;96577.19;5065885;28;20395;-61
2022/12/18 00:16:29;;;;;;;21.00;19.02;;;;;;;-0.37;100.00;96583.19;5069261;28;20029;-58
2022/12/18 00:18:59;;;;;;;21.27;19.15;;;;;;;-0.35;100.00;96578.81;5063681;28;20109;-62
2022/12/18 00:21:26;;;;;;;21.15;19.05;;;;;;;-0.35;100.00;96591.75;5069340;28;20028;-61
2022/12/18 00:23:51;;;;;;;21.45;19.35;;;;;;;-0.34;100.00;96584.84;5068313;28;20098;-62
2022/12/18 00:26:20;;;;;;;22.00;19.95;;;;;;;-0.35;100.00;96602.09;5069301;28;20060;-62
2022/12/18 00:28:46;;;;;;;20.63;18.58;;;;;;;-0.31;100.00;96595.94;5069053;28;20020;-62
2022/12/18 00:31:17;;;;;;;22.15;19.83;;;;;;;-0.31;100.00;96598.53;5067088;28;20029;-62
2022/12/18 00:33:43;;;;;;;22.60;20.50;;;;;;;-0.29;100.00;96593.28;5064154;28;20055;-59
2022/12/18 00:36:30;;;;;;;21.75;19.70;;;;;;;-0.29;100.00;96601.03;5068648;28;20028;-75
2022/12/18 00:38:58;;;;;;;23.55;21.13;;;;;;;-0.28;100.00;96594.97;5065331;28;20043;-65
2022/12/18 00:44:11;;;;;;;62.58;47.00;;;;;;;-0.26;100.00;96590.59;5063800;28;20090;-64
2022/12/18 00:46:37;;;;;;;47.72;37.05;;;;;;;-0.21;100.00;96590.44;5065434;28;20099;-65
2022/12/18 00:49:03;;;;;;;34.45;29.35;;;;;;;-0.25;100.00;96592.28;5067850;28;20189;-65
2022/12/18 00:51:28;;;;;;;32.17;26.00;;;;;;;-0.27;100.00;96588.06;5066411;28;20017;-64
2022/12/18 00:53:54;;;;;;;19.77;17.77;;;;;;;-0.32;100.00;96585.63;5068004;28;20028;-61
2022/12/18 00:56:19;;;;;;;18.75;16.88;;;;;;;-0.30;100.00;96584.69;5062871;28;20486;-62
2022/12/18 00:58:45;;;;;;;16.05;14.55;;;;;;;-0.34;100.00;96583.09;5068390;28;20063;-59
2022/12/18 01:01:10;;;;;;;16.55;14.85;;;;;;;-0.40;100.00;96575.53;5066434;28;20060;-59
2022/12/18 01:03:35;;;;;;;16.40;14.85;;;;;;;-0.46;100.00;96575.75;5065925;28;20016;-58
2022/12/18 01:06:09;;;;;;;17.83;16.02;;;;;;;-0.44;100.00;96576.53;5065311;28;20032;-59
2022/12/18 01:08:35;;;;;;;18.50;16.70;;;;;;;-0.47;100.00;96577.47;5064498;28;20060;-58
2022/12/18 01:11:06;;;;;;;25.58;21.23;;;;;;;-0.48;100.00;96580.16;5066847;28;20052;-58
2022/12/18 01:13:31;;;;;;;25.55;22.75;;;;;;;-0.50;100.00;96581.94;5063258;28;20032;-58
2022/12/18 01:15:57;;;;;;;17.27;15.70;;;;;;;-0.52;100.00;96589.75;5065513;28;20020;-62
2022/12/18 01:18:22;;;;;;;17.75;15.95;;;;;;;-0.54;100.00;96590.72;5064444;28;20063;-61
2022/12/18 01:20:47;;;;;;;16.52;14.98;;;;;;;-0.52;100.00;96594.09;5066061;28;20524;-62
2022/12/18 01:23:13;;;;;;;17.38;15.57;;;;;;;-0.55;100.00;96599.34;5067289;28;20032;-61
2022/12/18 01:25:38;;;;;;;32.97;26.67;;;;;;;-0.46;100.00;96607.63;5068908;28;20028;-61
2022/12/18 01:28:04;;;;;;;43.42;32.15;;;;;;;-0.41;100.00;96602.31;5067772;28;20100;-61
2022/12/18 01:30:30;;;;;;;29.05;24.85;;;;;;;-0.42;100.00;96598.03;5066528;28;20024;-61
2022/12/18 01:32:55;;;;;;;15.82;14.27;;;;;;;-0.47;100.00;96618.88;5063362;28;20025;-61
2022/12/18 01:35:20;;;;;;;18.08;16.48;;;;;;;-0.49;100.00;96620.69;5069388;28;20052;-60
2022/12/18 01:37:46;;;;;;;19.65;16.75;;;;;;;-0.54;100.00;96614.81;5063141;28;20086;-59
2022/12/18 01:40:12;;;;;;;18.00;16.17;;;;;;;-0.57;100.00;96620.09;5068086;28;20021;-59
2022/12/18 01:42:37;;;;;;;23.27;18.33;;;;;;;-0.32;100.00;96627.91;5064323;28;20098;-59
2022/12/18 05:06:18;;;;;;;30.17;25.05;;;;;;;-2.70;100.00;96723.25;5067244;28;20063;-60
2022/12/18 05:08:43;;;;;;;28.40;23.40;;;;;;;-2.74;100.00;96714.75;5069322;28;20037;-58
2022/12/18 05:11:15;;;;;;;21.38;18.48;;;;;;;-2.81;100.00;96726.06;5069156;28;20037;-59
2022/12/18 05:13:41;;;;;;;16.77;15.18;;;;;;;-2.86;100.00;96722.75;5068045;28;20411;-58
2022/12/18 05:16:07;;;;;;;21.25;19.08;;;;;;;-2.91;100.00;96726.28;5069878;28;20163;-58
2022/12/18 05:18:32;;;;;;;20.63;18.73;;;;;;;-2.88;100.00;96725.34;5066220;28;20506;-59
2022/12/18 05:20:57;;;;;;;18.45;16.75;;;;;;;-2.90;100.00;96727.97;5069737;28;20044;-58
2022/12/18 05:23:24;;;;;;;17.63;15.82;;;;;;;-2.97;100.00;96729.00;5064310;28;20044;-59
2022/12/18 05:25:53;;;;;;;24.02;20.13;;;;;;;-2.99;100.00;96730.75;5065406;28;20044;-58
2022/12/18 05:28:19;;;;;;;21.63;18.85;;;;;;;-2.99;100.00;96732.50;5065255;28;20040;-61
2022/12/18 05:30:49;;;;;;;20.15;16.88;;;;;;;-2.98;100.00;96736.75;5069185;28;20040;-61
2022/12/18 05:33:14;;;;;;;17.95;16.13;;;;;;;-2.97;100.00;96731.59;5060446;28;20043;-61
2022/12/18 05:35:40;;;;;;;18.27;16.50;;;;;;;-2.96;100.00;96728.13;5064834;28;20111;-62
2022/12/18 05:38:05;;;;;;;30.33;21.90;;;;;;;-2.98;100.00;96736.75;5068773;28;20032;-61
2022/12/18 05:40:30;;;;;;;26.00;20.30;;;;;;;-3.04;100.00;96727.44;5069281;28;20078;-61
2022/12/18 05:42:55;;;;;;;22.63;18.88;;;;;;;-3.09;100.00;96731.84;5063507;28;20040;-70
2022/12/18 05:45:21;;;;;;;18.77;16.55;;;;;;;-3.10;100.00;96732.72;5064616;28;20043;-62
2022/12/18 05:47:46;;;;;;;21.17;17.83;;;;;;;-3.11;100.00;96736.19;5064106;28;20035;-62
2022/12/18 05:50:11;;;;;;;24.77;19.38;;;;;;;-3.17;100.00;96726.84;5065128;28;20036;-62
2022/12/18 05:52:37;;;;;;;30.05;22.27;;;;;;;-3.15;100.00;96735.38;5064754;28;20056;-61
2022/12/18 05:55:03;;;;;;;25.30;21.85;;;;;;;-3.14;100.00;96743.97;5067611;28;20039;-62
2022/12/18 05:57:28;;;;;;;27.65;23.17;;;;;;;-3.18;100.00;96738.91;5050262;28;20410;-61
2022/12/18 05:59:53;;;;;;;26.48;23.05;;;;;;;-3.22;100.00;96747.53;5065258;28;20032;-62
2022/12/18 06:02:20;;;;;;;28.95;24.08;;;;;;;-3.25;100.00;96752.75;5068982;28;20028;-60
2022/12/18 06:04:46;;;;;;;34.08;23.42;;;;;;;-3.27;100.00;96762.25;5067885;28;20182;-61
2022/12/18 06:07:11;;;;;;;27.73;22.88;;;;;;;-3.28;100.00;96757.97;5067665;28;20048;-64
2022/12/18 06:09:36;;;;;;;28.20;20.55;;;;;;;-3.30;100.00;96759.75;5066424;28;20056;-64
2022/12/18 06:12:02;;;;;;;24.80;20.48;;;;;;;-3.31;100.00;96761.47;5064286;28;20067;-64
2022/12/18 06:14:27;;;;;;;19.48;17.38;;;;;;;-3.34;100.00;96761.50;5068500;28;20036;-65
2022/12/18 06:16:53;;;;;;;17.35;15.48;;;;;;;-3.32;100.00;96761.50;5066077;28;20064;-65
2022/12/18 06:19:18;;;;;;;17.05;15.35;;;;;;;-3.32;100.00;96770.09;5063413;28;20052;-65
2022/12/18 06:21:44;;;;;;;15.35;13.88;;;;;;;-3.35;100.00;96762.41;5065701;28;20051;-76
2022/12/18 06:24:09;;;;;;;13.75;12.40;;;;;;;-3.41;100.00;96767.69;5064989;28;20039;-61
2022/12/18 06:26:38;;;;;;;12.43;11.05;;;;;;;-3.44;100.00;96775.47;5045400;28;20036;-62
2022/12/18 06:29:04;;;;;;;11.93;10.82;;;;;;;-3.47;100.00;96766.06;5066706;28;20072;-62
2022/12/18 06:31:30;;;;;;;11.23;10.02;;;;;;;-3.45;100.00;96772.03;5064280;28;20061;-62
2022/12/18 06:33:55;;;;;;;12.48;11.27;;;;;;;-3.51;100.00;96781.63;5065988;28;20565;-62
2022/12/18 06:36:21;;;;;;;15.30;13.40;;;;;;;-3.51;100.00;96782.44;5066945;28;20044;-62
2022/12/18 06:38:46;;;;;;;17.23;13.60;;;;;;;-3.50;100.00;96778.16;5064996;28;20079;-62
2022/12/18 06:41:20;;;;;;;16.20;13.93;;;;;;;-3.46;100.00;96790.09;5062360;28;20128;-77
2022/12/18 06:43:45;;;;;;;23.90;20.88;;;;;;;-3.46;100.00;96788.34;5062979;28;20115;-62
2022/12/18 06:46:11;;;;;;;50.40;33.30;;;;;;;-3.48;100.00;96797.00;5061231;28;20123;-61
2022/12/18 06:48:36;;;;;;;55.75;39.92;;;;;;;-3.54;100.00;96803.13;5066664;28;20587;-61
2022/12/18 06:51:02;;;;;;;43.05;31.80;;;;;;;-3.54;100.00;96807.41;5063763;28;20652;-61
2022/12/18 06:53:29;;;;;;;29.00;23.67;;;;;;;-3.53;100.00;96817.69;5065958;28;20068;-60
2022/12/18 06:56:06;;;;;;;27.45;23.13;;;;;;;-3.54;100.00;96820.28;5069474;28;20494;-60
2022/12/18 06:58:32;;;;;;;28.98;22.20;;;;;;;-3.54;100.00;96828.84;5070290;28;20527;-61
2022/12/18 07:01:01;;;;;;;31.40;23.25;;;;;;;-3.52;100.00;96834.81;5065525;28;20037;-62
2022/12/18 07:03:27;;;;;;;27.52;21.35;;;;;;;-3.47;100.00;96838.16;5067896;28;20047;-71
2022/12/18 07:05:52;;;;;;;30.95;23.60;;;;;;;-3.49;100.00;96841.66;5067718;28;20052;-74
2022/12/18 07:08:17;;;;;;;25.83;22.95;;;;;;;-3.51;100.00;96844.25;5067034;28;20107;-72
2022/12/18 07:10:43;;;;;;;29.17;24.98;;;;;;;-3.55;100.00;96831.44;5066707;28;20040;-72
2022/12/18 07:13:09;;;;;;;22.25;19.17;;;;;;;-3.56;100.00;96842.63;5067440;28;20087;-71
2022/12/18 07:15:34;;;;;;;24.45;20.77;;;;;;;-3.54;100.00;96846.03;5067842;28;20040;-74
2022/12/18 07:17:59;;;;;;;28.85;21.85;;;;;;;-3.57;100.00;96843.50;5064422;28;20117;-72
2022/12/18 07:20:25;;;;;;;24.35;21.38;;;;;;;-3.58;100.00;96854.69;5070347;28;20494;-70
2022/12/18 07:22:50;;;;;;;34.22;27.88;;;;;;;-3.60;100.00;96852.97;5065871;28;20757;-59
2022/12/18 07:25:15;;;;;;;32.88;26.30;;;;;;;-3.59;100.00;96861.56;5067857;28;20118;-59
2022/12/18 07:27:41;;;;;;;31.85;26.45;;;;;;;-3.58;100.00;96860.69;5064443;28;20526;-59
2022/12/18 07:30:07;;;;;;;27.73;22.80;;;;;;;-3.56;100.00;96863.22;5064688;28;20451;-55
2022/12/18 07:32:32;;;;;;;29.33;24.38;;;;;;;-3.58;100.00;96855.53;5064910;28;20519;-57
2022/12/18 07:34:57;;;;;;;36.17;27.63;;;;;;;-3.57;100.00;96859.81;5066936;28;20170;-58
2022/12/18 07:37:23;;;;;;;31.58;26.27;;;;;;;-3.59;100.00;96861.56;5069038;28;20045;-59
2022/12/18 07:39:48;;;;;;;34.55;26.63;;;;;;;-3.56;100.00;96866.66;5066651;28;20075;-60
2022/12/18 07:42:31;;;;;;;33.50;26.65;;;;;;;-3.53;100.00;96865.78;5063339;28;20037;-75
2022/12/18 07:45:01;;;;;;;31.05;24.75;;;;;;;-3.57;100.00;96857.25;5070797;28;20032;-74
2022/12/18 07:47:28;;;;;;;35.78;25.63;;;;;;;-3.59;100.00;96856.41;5069200;28;20048;-74
2022/12/18 07:49:53;;;;;;;32.90;27.10;;;;;;;-3.57;100.00;96854.66;5069891;28;20039;-74
2022/12/18 07:52:19;;;;;;;27.95;23.08;;;;;;;-3.54;100.00;96857.19;5067737;28;20028;-74
2022/12/18 07:54:44;;;;;;;24.17;21.05;;;;;;;-3.51;100.00;96862.28;5065093;28;20112;-74
2022/12/18 07:57:10;;;;;;;24.10;20.23;;;;;;;-3.48;100.00;96869.09;5069327;28;20102;-63
2022/12/18 07:59:35;;;;;;;23.80;20.50;;;;;;;-3.49;100.00;96857.94;5071140;28;20483;-68
2022/12/18 08:02:00;;;;;;;31.73;23.60;;;;;;;-3.47;100.00;96866.50;5067600;28;20036;-60
2022/12/18 08:04:26;;;;;;;22.02;19.83;;;;;;;-3.49;100.00;96875.97;5065446;28;20036;-59
2022/12/18 08:06:51;;;;;;;21.80;18.27;;;;;;;-3.45;100.00;96866.47;5068042;28;20032;-60
2022/12/18 08:09:17;;;;;;;22.42;19.27;;;;;;;-3.43;100.00;96863.84;5063390;28;20024;-60
2022/12/18 08:11:42;;;;;;;29.30;26.23;;;;;;;-3.45;100.00;96867.31;5070238;28;20052;-59
2022/12/18 08:14:08;;;;;;;48.25;43.45;;;;;;;-3.43;100.00;96862.13;5071301;28;20505;-59
2022/12/18 08:16:33;;;;;;;50.90;43.35;;;;;;;-3.42;100.00;96852.72;5064325;28;20041;-59
2022/12/18 08:18:59;;;;;;;47.58;41.92;;;;;;;-3.42;100.00;96857.84;5064210;28;20043;-62
2022/12/18 08:21:27;;;;;;;46.67;41.42;;;;;;;-3.42;100.00;96860.44;5064254;28;20037;-60
2022/12/18 08:23:55;;;;;;;40.45;36.08;;;;;;;-3.43;100.00;96851.84;5066197;28;20041;-61
2022/12/18 08:26:22;;;;;;;37.60;32.70;;;;;;;-3.39;100.00;96852.66;5065058;28;20041;-61
2022/12/18 08:28:47;;;;;;;35.05;30.77;;;;;;;-3.40;100.00;96858.69;5067671;28;20085;-61
2022/12/18 08:31:13;;;;;;;35.00;31.23;;;;;;;-3.40;100.00;96856.94;5068283;28;20032;-60
2022/12/18 08:33:40;;;;;;;37.10;30.63;;;;;;;-3.36;100.00;96860.31;5067767;28;20033;-60
2022/12/18 08:36:05;;;;;;;31.95;28.70;;;;;;;-3.32;100.00;96861.94;5069166;28;20405;-62
2022/12/18 08:38:32;;;;;;;39.22;35.17;;;;;;;-3.21;100.00;96864.31;5066267;28;20082;-63
2022/12/18 08:41:03;;;;;;;45.97;41.13;;;;;;;-3.25;100.00;96854.97;5065433;28;20112;-62
2022/12/18 08:46:13;;;;;;;52.95;46.42;;;;;;;-3.25;100.00;96868.69;5063765;28;20255;-63
2022/12/18 08:48:38;;;;;;;52.45;45.47;;;;;;;-3.26;100.00;96859.25;5062453;28;20119;-61
2022/12/18 08:51:04;;;;;;;53.78;45.53;;;;;;;-3.22;100.00;96865.22;5064146;28;20127;-62
2022/12/18 08:53:29;;;;;;;53.20;45.45;;;;;;;-3.20;100.00;96869.47;5069500;28;20120;-63
2022/12/18 08:55:56;;;;;;;57.28;48.13;;;;;;;-3.20;100.00;96869.47;5066812;28;20028;-64
2022/12/18 08:58:21;;;;;;;55.25;49.30;;;;;;;-3.14;100.00;96862.50;5063038;28;20300;-63
2022/12/18 09:00:47;;;;;;;66.50;55.88;;;;;;;-3.18;100.00;96862.56;5059603;28;20049;-64
2022/12/18 09:03:14;;;;;;;61.88;55.13;;;;;;;-3.11;100.00;96865.00;5065800;28;20123;-63
2022/12/18 09:05:40;;;;;;;66.22;56.92;;;;;;;-3.10;100.00;96852.06;5060638;28;20114;-64
2022/12/18 09:08:05;;;;;;;64.75;53.75;;;;;;;-3.09;100.00;96858.09;5060444;28;20487;-66
2022/12/18 09:10:31;;;;;;;65.18;55.67;;;;;;;-3.10;100.00;96864.13;5068979;28;20048;-65
2022/12/18 09:12:56;;;;;;;61.45;52.45;;;;;;;-3.10;100.00;96854.66;5069635;28;20033;-66
2022/12/18 09:15:22;;;;;;;65.60;55.35;;;;;;;-3.10;100.00;96861.53;5064339;28;20415;-66
2022/12/18 09:17:48;;;;;;;71.95;58.28;;;;;;;-3.12;100.00;96860.72;5067907;28;20060;-64
2022/12/18 09:20:13;;;;;;;67.30;56.92;;;;;;;-3.19;100.00;96865.16;5061029;28;20187;-66
2022/12/18 09:22:39;;;;;;;76.07;66.05;;;;;;;-3.16;100.00;96865.09;5066012;28;20039;-66
2022/12/18 09:25:07;;;;;;;81.25;67.22;;;;;;;-3.13;100.00;96866.75;5065886;28;20047;-66
2022/12/18 09:27:32;;;;;;;75.57;63.50;;;;;;;-3.09;100.00;96868.41;5066979;28;20028;-66
2022/12/18 09:29:58;;;;;;;74.30;60.47;;;;;;;-3.04;100.00;96864.00;5061472;28;20077;-66
2022/12/18 09:32:23;;;;;;;66.20;57.00;;;;;;;-2.97;100.00;96860.44;5066616;28;20040;-66
2022/12/18 09:34:49;;;;;;;70.15;60.50;;;;;;;-2.88;100.00;96855.09;5063485;28;20064;-59
2022/12/18 09:37:14;;;;;;;94.25;76.78;;;;;;;-2.65;100.00;96856.34;5067694;28;20101;-65
2022/12/18 09:39:39;;;;;;;79.28;66.53;;;;;;;-2.33;100.00;96862.53;5042911;28;20037;-57
2022/12/18 09:42:06;;;;;;;84.40;67.10;;;;;;;-1.90;100.00;96854.69;5063588;28;20075;-58
2022/12/18 09:44:46;;;;;;;62.08;54.03;;;;;;;-1.43;100.00;96858.72;5066717;28;20063;-57
2022/12/18 09:47:27;;;;;;;64.85;51.60;;;;;;;-0.98;100.00;96857.53;5066557;28;20028;-58
2022/12/18 09:49:57;;;;;;;62.97;49.42;;;;;;;-0.68;100.00;96857.53;5065734;28;20047;-58
2022/12/18 09:52:26;;;;;;;51.10;42.63;;;;;;;-0.48;100.00;96859.56;5065740;28;20032;-59
2022/12/18 09:55:22;;;;;;;61.15;48.28;;;;;;;-0.29;100.00;96852.09;5066704;28;20036;-60
2022/12/18 09:57:51;;;;;;;;;;;;;;;-0.01;100.00;96851.22;5062554;28;20580;-74
2022/12/18 10:00:19;;;;;;;24.42;21.92;;;;;;;0.13;100.00;96856.00;5067521;28;19927;-73
2022/12/18 10:02:45;;;;;;;27.73;25.25;;;;;;;0.38;100.00;96852.59;5062849;28;20056;-74
2022/12/18 10:05:20;;;;;;;37.97;33.92;;;;;;;0.52;100.00;96858.16;5061034;28;20054;-74
2022/12/18 10:07:55;;;;;;;27.30;24.30;;;;;;;0.81;100.00;96856.34;5065482;28;20040;-74
2022/12/18 10:10:23;;;;;;;12.45;11.25;;;;;;;1.03;100.00;96858.19;5066691;28;20035;-75
2022/12/18 10:13:14;;;;;;;10.23;8.55;;;;;;;1.20;100.00;96854.13;5066509;28;20047;-58
2022/12/18 10:16:08;;;;;;;8.98;8.18;;;;;;;1.40;100.00;96859.44;5064128;28;20058;-62
2022/12/18 10:18:54;;;;;;;9.45;8.48;;;;;;;1.49;100.00;96870.38;5069493;28;20035;-66
2022/12/18 10:21:29;;;;;;;8.70;7.82;;;;;;;1.68;100.00;96866.19;5066230;28;20044;-65
2022/12/18 10:23:58;;;;;;;14.80;13.30;;;;;;;1.92;100.00;96867.91;5071459;28;20032;-65
2022/12/18 10:26:24;;;;;;;11.57;10.65;;;;;;;2.19;100.00;96865.97;5068930;28;20107;-65
2022/12/18 10:28:50;;;;;;;10.25;9.32;;;;;;;2.32;100.00;96861.13;5064577;28;20052;-65
2022/12/18 10:31:22;;;;;;;10.65;9.75;;;;;;;2.40;100.00;96858.22;5071118;28;20040;-65
2022/12/18 10:33:48;;;;;;;12.73;11.63;;;;;;;2.37;100.00;96858.34;5069636;28;20540;-59
2022/12/18 10:36:14;;;;;;;12.32;11.13;;;;;;;2.53;100.00;96849.00;5071056;28;20041;-61
2022/12/18 10:38:39;;;;;;;16.02;11.68;;;;;;;2.60;100.00;96849.59;5069723;28;20031;-61
2022/12/18 10:41:18;;;;;;;43.85;27.42;;;;;;;2.62;100.00;96845.16;5070291;28;20029;-62
2022/12/18 10:43:43;;;;;;;13.00;10.65;;;;;;;2.49;100.00;96844.84;5065969;28;20571;-61
2022/12/18 10:46:09;;;;;;;20.38;14.07;;;;;;;2.37;100.00;96840.16;5066541;28;20065;-61
2022/12/18 10:48:51;;;;;;;14.25;11.10;;;;;;;2.48;100.00;96845.75;5072798;28;20037;-61
2022/12/18 10:51:27;;;;;;;8.82;7.82;;;;;;;2.43;100.00;96830.34;5072394;28;20253;-59
2022/12/18 10:54:01;;;;;;;29.00;20.70;;;;;;;2.64;100.00;96826.91;5068898;28;20063;-63
2022/12/18 10:56:28;;;;;;;10.48;8.85;;;;;;;2.83;100.00;96834.75;5073228;28;20071;-61
2022/12/18 10:59:05;;;;;;;12.15;10.15;;;;;;;3.00;100.00;96834.06;5070886;28;20052;-61
2022/12/18 11:01:57;;;;;;;14.80;10.52;;;;;;;3.25;100.00;96830.34;5051342;28;20040;-62
2022/12/18 11:04:28;;;;;;;22.67;12.20;;;;;;;3.54;100.00;96836.00;5065082;28;20032;-61
2022/12/18 11:07:06;;;;;;;9.70;6.95;;;;;;;3.58;100.00;96827.97;5065725;28;20032;-62
2022/12/18 11:09:34;;;;;;;10.23;6.70;;;;;;;3.70;100.00;96817.91;5067035;28;20442;-62
2022/12/18 11:12:02;;;;;;;3.80;3.58;;;;;;;3.84;100.00;96822.44;5063321;28;20039;-62
2022/12/18 11:14:33;;;;;;;3.72;3.53;;;;;;;3.75;100.00;96825.50;5068473;28;20048;-61
2022/12/18 11:17:00;;;;;;;6.90;4.63;;;;;;;3.72;100.00;96819.53;5065604;28;20473;-62
2022/12/18 11:19:36;;;;;;;3.75;3.55;;;;;;;3.59;98.50;96813.19;5064373;28;20091;-61
2022/12/18 11:22:19;;;;;;;3.67;3.47;;;;;;;3.64;98.79;96812.97;5069661;28;20115;-61
2022/12/18 11:24:54;;;;;;;3.40;3.15;;;;;;;3.64;98.96;96819.00;5071053;28;20437;-61
2022/12/18 11:27:20;;;;;;;5.40;3.95;;;;;;;3.81;99.49;96818.25;5064813;28;20080;-61
2022/12/18 11:29:49;;;;;;;4.70;4.30;;;;;;;3.92;96.19;96815.13;5069126;28;20067;-61
2022/12/18 11:32:14;;;;;;;6.25;5.75;;;;;;;4.30;97.33;96811.59;5068659;28;20056;-68
2022/12/18 11:34:44;;;;;;;6.88;6.18;;;;;;;4.38;94.30;96808.59;5069615;28;20456;-62
2022/12/18 11:37:12;;;;;;;5.10;4.00;;;;;;;4.48;95.62;96807.22;5071354;28;20036;-65
2022/12/18 11:39:56;;;;;;;9.07;5.70;;;;;;;4.46;90.90;96803.00;5073345;28;20123;-63
2022/12/18 11:42:31;;;;;;;10.32;9.25;;;;;;;4.67;90.90;96801.06;5060587;28;20577;-63
2022/12/18 11:45:15;;;;;;;5.20;4.70;;;;;;;4.66;89.37;96807.22;5067806;28;20115;-64
2022/12/18 11:47:49;;;;;;;17.83;16.17;;;;;;;4.90;91.46;96807.72;5065913;28;20037;-65
2022/12/18 11:50:42;;;;;;;8.20;7.50;;;;;;;4.94;92.61;96790.97;5068846;28;20036;-64
2022/12/18 11:53:11;;;;;;;7.13;6.60;;;;;;;4.95;89.01;96794.41;5062160;28;20227;-60
2022/12/18 11:55:58;;;;;;;5.63;5.18;;;;;;;4.87;86.61;96784.41;5072016;28;20495;-66
2022/12/18 11:58:32;;;;;;;9.63;8.65;;;;;;;5.05;89.52;96776.50;5064079;28;20459;-68
2022/12/18 12:01:07;;;;;;;9.43;8.52;;;;;;;5.22;89.92;96771.25;5070031;28;20043;-68
2022/12/18 12:03:58;;;;;;;5.47;5.07;;;;;;;5.26;85.82;96771.94;5069588;28;20048;-66
2022/12/18 12:06:42;;;;;;;4.20;3.80;;;;;;;5.26;85.57;96766.72;5069105;28;20533;-67
2022/12/18 12:09:31;;;;;;;3.97;3.67;;;;;;;5.20;84.70;96767.06;5069401;28;20032;-61
2022/12/18 12:12:45;;;;;;;6.43;3.78;;;;;;;5.27;87.22;96763.16;5063436;28;20028;-59
2022/12/18 12:15:38;;;;;;;4.88;4.53;;;;;;;5.37;84.52;96759.13;5059800;28;20624;-58
2022/12/18 12:18:15;;;;;;;6.18;5.00;;;;;;;5.43;84.21;96758.81;5067434;28;20535;-59
2022/12/18 12:20:55;;;;;;;6.45;5.35;;;;;;;5.52;84.54;96754.00;5068730;28;20036;-60
2022/12/18 12:23:35;;;;;;;5.47;5.07;;;;;;;5.53;83.39;96759.16;5069761;28;20035;-59
2022/12/18 12:26:09;;;;;;;4.97;4.57;;;;;;;5.74;85.63;96751.03;5063927;28;20107;-60
2022/12/18 12:28:50;;;;;;;5.00;4.57;;;;;;;5.73;86.51;96750.19;5064699;28;20037;-60
2022/12/18 12:31:27;;;;;;;4.63;4.25;;;;;;;5.65;85.68;96747.19;5060634;28;20549;-75
2022/12/18 12:34:26;;;;;;;4.47;4.18;;;;;;;5.79;88.90;96740.31;5054005;28;20037;-61
2022/12/18 12:36:54;;;;;;;4.88;4.22;;;;;;;5.63;87.96;96740.34;5067547;28;20036;-62
2022/12/18 12:39:26;;;;;;;4.57;4.28;;;;;;;5.77;89.40;96744.78;5067704;28;20056;-61
2022/12/18 12:44:47;;;;;;;3.70;3.40;;;;;;;5.71;89.76;96731.16;5067830;28;20071;-61
2022/12/18 12:47:20;;;;;;;4.75;4.35;;;;;;;5.80;88.66;96735.03;5068088;28;20485;-66
2022/12/18 12:49:47;;;;;;;3.75;3.45;;;;;;;5.87;88.60;96725.06;5066294;28;20067;-61
2022/12/18 12:52:39;;;;;;;3.53;3.33;;;;;;;5.91;88.34;96718.72;5065108;28;20421;-62
2022/12/18 12:55:14;;;;;;;38.58;33.88;;;;;;;6.08;88.77;96716.91;5044744;28;20517;-67
2022/12/18 12:57:45;;;;;;;20.55;18.00;;;;;;;6.02;86.43;96724.19;5066659;28;20035;-67
2022/12/18 13:00:17;;;;;;;6.25;5.65;;;;;;;6.15;86.97;96720.88;5067590;28;20035;-66
2022/12/18 13:02:59;;;;;;;4.90;4.60;;;;;;;6.07;84.42;96720.47;5068903;28;20048;-67
2022/12/18 13:05:33;;;;;;;4.30;4.00;;;;;;;5.91;82.51;96725.72;5069075;28;20048;-66
2022/12/18 13:08:08;;;;;;;7.32;6.63;;;;;;;6.15;84.20;96720.88;5066808;28;20068;-75
2022/12/18 13:10:34;;;;;;;4.13;3.80;;;;;;;6.06;85.37;96719.66;5061542;28;20039;-59
2022/12/18 13:13:07;;;;;;;4.80;4.40;;;;;;;6.55;88.28;96710.69;5068410;28;20445;-58
2022/12/18 13:16:06;;;;;;;9.00;8.15;;;;;;;6.83;82.53;96714.25;5069819;28;20029;-58
2022/12/18 13:18:32;;;;;;;4.60;4.25;;;;;;;7.10;83.16;96703.00;5068738;28;20037;-58
2022/12/18 13:20:57;;;;;;;12.07;10.80;;;;;;;6.96;80.42;96701.25;5063170;28;20043;-59
2022/12/18 13:23:22;;;;;;;5.50;5.03;;;;;;;6.96;82.50;96690.78;5068410;28;20112;-58
2022/12/18 13:25:52;;;;;;;9.57;8.70;;;;;;;7.06;79.70;96692.81;5065258;28;20051;-60
2022/12/18 13:28:24;;;;;;;6.90;6.20;;;;;;;7.15;79.94;96694.88;5066115;28;20060;-59
2022/12/18 13:30:57;;;;;;;8.63;7.78;;;;;;;7.42;80.87;96694.06;5063587;28;20050;-59
2022/12/18 13:33:22;;;;;;;9.23;8.35;;;;;;;7.72;80.63;96696.50;5066762;28;20048;-59
2022/12/18 13:35:47;;;;;;;25.05;14.15;;;;;;;7.82;80.54;96686.25;5063930;28;20047;-58
2022/12/18 13:38:31;;;;;;;10.27;8.75;;;;;;;7.85;81.95;96693.09;5067068;28;20120;-59
2022/12/18 13:40:57;;;;;;;5.60;5.10;;;;;;;7.72;76.87;96691.25;5064501;28;20641;-58
2022/12/18 13:43:33;;;;;;;7.88;7.07;;;;;;;7.43;81.14;96693.97;5062637;28;20065;-58
2022/12/18 13:46:02;;;;;;;7.40;6.13;;;;;;;7.26;78.44;96702.88;5061923;28;20036;-58
2022/12/18 13:48:29;;;;;;;12.18;8.57;;;;;;;7.34;81.86;96688.47;5060879;28;20757;-58
2022/12/18 13:51:03;;;;;;;5.88;5.38;;;;;;;6.93;80.69;96685.72;5067416;28;20059;-56
2022/12/18 13:53:54;;;;;;;6.63;5.22;;;;;;;6.54;81.25;96688.06;5064708;28;20097;-56
2022/12/18 13:56:26;;;;;;;5.35;4.85;;;;;;;6.63;84.25;96696.28;5067508;28;20077;-56
2022/12/18 13:59:11;;;;;;;4.68;4.38;;;;;;;6.78;86.47;96694.53;5065812;28;20525;-57
2022/12/18 14:01:36;;;;;;;5.20;4.80;;;;;;;6.30;83.42;96696.47;5062324;28;20024;-56
2022/12/18 14:04:34;;;;;;;3.47;3.28;;;;;;;5.72;88.52;96696.25;5058882;28;20044;-69
2022/12/18 14:07:20;;;;;;;4.03;3.67;;;;;;;5.87;89.69;96691.09;5042796;28;20111;-61
2022/12/18 14:09:50;;;;;;;17.13;15.73;;;;;;;5.94;89.91;96695.03;5064008;28;20029;-64
2022/12/18 14:15:03;;;;;;;6.82;5.55;;;;;;;5.66;87.46;96700.97;5062575;28;20524;-62
2022/12/18 14:17:30;;;;;;;4.10;3.80;;;;;;;5.53;91.27;96698.22;5062554;28;20103;-62
2022/12/18 14:19:56;;;;;;;4.00;3.65;;;;;;;5.37;92.62;96703.47;5068761;28;20086;-62
2022/12/18 14:22:29;;;;;;;4.30;4.00;;;;;;;5.31;94.12;96696.78;5065203;28;20044;-62
2022/12/18 14:25:28;;;;;;;4.68;4.38;;;;;;;5.51;91.57;96700.91;5065779;28;20044;-65
2022/12/18 14:28:12;;;;;;;4.80;4.38;;;;;;;5.69;92.40;96706.88;5031668;28;20036;-60
2022/12/18 14:30:42;;;;;;;10.63;9.40;;;;;;;5.41;91.84;96703.19;5061882;28;20037;-60
2022/12/18 14:33:07;;;;;;;11.93;9.90;;;;;;;5.11;93.96;96710.94;5066509;28;20421;-59
2022/12/18 14:35:35;;;;;;;11.23;10.13;;;;;;;4.88;94.21;96716.47;5060123;28;20094;-59
2022/12/18 14:38:09;;;;;;;9.38;8.38;;;;;;;4.26;97.53;96724.03;5063777;28;20031;-59
2022/12/18 14:40:34;;;;;;;12.05;9.57;;;;;;;3.78;100.00;96721.16;5065314;28;20032;-59
2022/12/18 14:43:00;;;;;;;11.60;10.43;;;;;;;3.50;100.00;96725.09;5066480;28;20753;-75
2022/12/18 14:45:46;;;;;;;11.52;9.55;;;;;;;3.32;100.00;96719.00;5064793;28;20034;-59
2022/12/18 14:48:11;;;;;;;7.60;6.90;;;;;;;3.23;100.00;96726.31;5067421;28;20033;-56
2022/12/18 14:50:37;;;;;;;34.83;27.73;;;;;;;3.19;100.00;96723.91;5068115;28;20189;-55
2022/12/18 14:53:03;;;;;;;34.75;29.85;;;;;;;3.40;100.00;96729.88;5066335;28;20411;-54
2022/12/18 14:55:28;;;;;;;36.63;30.35;;;;;;;2.98;100.00;96731.78;5067888;28;20406;-53
2022/12/18 14:57:55;;;;;;;41.53;33.85;;;;;;;2.73;100.00;96735.47;5066171;28;20059;-55
2022/12/18 15:00:24;;;;;;;29.20;25.80;;;;;;;2.70;100.00;96738.22;5062873;28;20041;-54
2022/12/18 15:02:55;;;;;;;24.27;21.33;;;;;;;2.47;100.00;96740.06;5066727;28;20060;-56
2022/12/18 15:05:27;;;;;;;25.42;22.75;;;;;;;2.37;100.00;96739.63;5065952;28;20060;-59